You are not logged in, Click here to log in
機場資訊:ZUUU Welcome to Taiwan Airways 台灣虛擬航空
ICAO: ZUUU Country: 中華人民共和國四川省成都市双流县 機場代碼: CTU
Latitude: 30.5675 Longitude: 103.949
Total Arrivals: 28 Total Departures: 23
Latest Arrival: CA4272 (ZHCC-ZUUU)CHU. CHUHAO Latest Departure: BR766 (ZUUU-RCTP)CHU. CHUHAO
Scenery:
METAR : ZUUU 171300Z 21002MPS 140V280 CAVOK 17/13 Q1023 NOSIG

成都雙流國際機場